Time;durP1;ratioP1;P1;durP2;ratioP2;P2;SDS_P1;SDS_P2;PMS_P1;PMS_P2;Temp;Humidity;BMP_temperature;BMP_pressure;BME280_temperature;BME280_humidity;BME280_pressure;Samples;Min_cycle;Max_cycle;Signal;HPM_P1;HPM_P2
2021/07/24 00:02:01;;;;;;;;;;;13.20;89.80;;;;;;5030890;28;19922;-59
2021/07/24 00:04:27;;;;;;;;;;;13.20;89.90;;;;;;5031431;28;19924;-59
2021/07/24 00:06:52;;;;;;;;;;;13.20;90.00;;;;;;5031250;28;20148;-59
2021/07/24 00:09:18;;;;;;;;;;;13.20;90.10;;;;;;5030849;28;20402;-59
2021/07/24 00:11:43;;;;;;;;;;;13.20;90.10;;;;;;5031294;28;19924;-59
2021/07/24 00:14:09;;;;;;;;;;;13.20;90.10;;;;;;5031086;28;19918;-59
2021/07/24 00:16:34;;;;;;;;;;;13.20;90.10;;;;;;5030677;28;19968;-59
2021/07/24 00:19:00;;;;;;;;;;;13.20;90.10;;;;;;5031187;28;19921;-59
2021/07/24 00:21:26;;;;;;;;;;;13.20;90.10;;;;;;5030716;28;20337;-59
2021/07/24 00:23:51;;;;;;;;;;;13.10;90.10;;;;;;5031346;28;19921;-59
2021/07/24 00:26:17;;;;;;;;;;;13.10;90.20;;;;;;5031216;28;19925;-59
2021/07/24 00:28:42;;;;;;;;;;;13.10;90.20;;;;;;5030484;28;19917;-59
2021/07/24 00:31:08;;;;;;;;;;;13.10;90.20;;;;;;5031101;28;20392;-59
2021/07/24 00:33:40;;;;;;;;;;;13.10;90.20;;;;;;5031354;28;19917;-59
2021/07/24 00:36:05;;;;;;;;;;;13.10;90.30;;;;;;5030975;28;20008;-59
2021/07/24 00:38:32;;;;;;;;;;;13.10;90.30;;;;;;5038821;22;19929;-61
2021/07/24 00:41:03;;;;;;;;;;;13.00;90.30;;;;;;5050508;28;19929;-63
2021/07/24 00:43:29;;;;;;;;;;;13.00;90.40;;;;;;5050873;28;19925;-61
2021/07/24 00:45:56;;;;;;;;;;;13.00;90.40;;;;;;5049832;28;19924;-62
2021/07/24 00:48:23;;;;;;;;;;;13.00;90.50;;;;;;5033381;28;19924;-62
2021/07/24 00:51:07;;;;;;;;;;;12.90;90.50;;;;;;5054564;28;19923;-62
2021/07/24 00:53:35;;;;;;;;;;;13.00;90.50;;;;;;5033189;28;20273;-63
2021/07/24 00:56:01;;;;;;;;;;;12.90;90.50;;;;;;5050904;28;19912;-62
2021/07/24 00:58:28;;;;;;;;;;;12.90;90.50;;;;;;5050019;28;20376;-63
2021/07/24 01:00:54;;;;;;;;;;;12.80;90.60;;;;;;5050952;28;19974;-63
2021/07/24 01:03:20;;;;;;;;;;;12.90;90.70;;;;;;5050506;28;19955;-62
2021/07/24 01:05:45;;;;;;;;;;;12.80;90.70;;;;;;5033015;28;19956;-62
2021/07/24 01:08:11;;;;;;;;;;;12.80;90.70;;;;;;5050416;28;19917;-62
2021/07/24 01:10:37;;;;;;;;;;;12.80;90.70;;;;;;5019084;28;19921;-62
2021/07/24 01:13:03;;;;;;;;;;;12.80;90.70;;;;;;5036494;28;19940;-61
2021/07/24 01:15:28;;;;;;;;;;;12.80;90.80;;;;;;5054270;28;19999;-62
2021/07/24 01:17:55;;;;;;;;;;;12.80;90.80;;;;;;5019244;28;19924;-61
2021/07/24 01:20:21;;;;;;;;;;;12.80;90.80;;;;;;5053939;28;19917;-63
2021/07/24 01:22:47;;;;;;;;;;;12.80;90.80;;;;;;5053771;28;20373;-62
2021/07/24 01:25:14;;;;;;;;;;;12.70;90.80;;;;;;5036133;28;19924;-63
2021/07/24 01:27:41;;;;;;;;;;;12.70;90.80;;;;;;5035900;28;19917;-62
2021/07/24 01:30:08;;;;;;;;;;;12.70;90.90;;;;;;5053567;28;19943;-62
2021/07/24 01:32:36;;;;;;;;;;;12.70;90.90;;;;;;5053979;28;19924;-62
2021/07/24 01:35:02;;;;;;;;;;;12.70;91.00;;;;;;5036110;28;19917;-62
2021/07/24 01:37:29;;;;;;;;;;;12.70;91.00;;;;;;5035409;28;20347;-61
2021/07/24 01:39:55;;;;;;;;;;;12.70;91.00;;;;;;5035830;28;20000;-63
2021/07/24 01:42:22;;;;;;;;;;;12.70;91.00;;;;;;5053417;28;20289;-62
2021/07/24 01:44:55;;;;;;;;;;;12.60;91.00;;;;;;5036002;28;19923;-61
2021/07/24 01:47:21;;;;;;;;;;;12.60;91.10;;;;;;5053445;28;20004;-61
2021/07/24 01:52:48;;;;;;;;;;;12.60;91.10;;;;;;5053165;28;19928;-62
2021/07/24 01:55:31;;;;;;;;;;;12.60;91.20;;;;;;5053702;28;19963;-62
2021/07/24 01:58:10;;;;;;;;;;;12.60;91.20;;;;;;5035155;28;19921;-63
2021/07/24 02:00:54;;;;;;;;;;;12.50;91.20;;;;;;5035190;28;20393;-61
2021/07/24 02:03:34;;;;;;;;;;;12.50;91.20;;;;;;5053446;28;20400;-62
2021/07/24 02:06:23;;;;;;;;;;;12.50;91.20;;;;;;5035194;28;20389;-63
2021/07/24 02:09:10;;;;;;;;;;;12.50;91.30;;;;;;5035491;28;20007;-62
2021/07/24 02:11:38;;;;;;;;;;;12.50;91.30;;;;;;5035331;28;20274;-62
2021/07/24 02:14:05;;;;;;;;;;;12.50;91.30;;;;;;5053250;28;19919;-63
2021/07/24 02:16:32;;;;;;;;;;;12.50;91.30;;;;;;5034833;28;19923;-63
2021/07/24 02:18:59;;;;;;;;;;;12.50;91.40;;;;;;5035218;28;19978;-63
2021/07/24 02:21:32;;;;;;;;;;;12.40;91.30;;;;;;5033778;28;19932;-62
2021/07/24 02:23:58;;;;;;;;;;;12.40;91.30;;;;;;5035177;28;19920;-62
2021/07/24 02:26:24;;;;;;;;;;;12.40;91.30;;;;;;5052933;28;19916;-62
2021/07/24 02:28:51;;;;;;;;;;;12.40;91.30;;;;;;5034214;28;19917;-63
2021/07/24 02:31:16;;;;;;;;;;;12.40;91.30;;;;;;5052976;28;19921;-62
2021/07/24 02:33:42;;;;;;;;;;;12.30;91.40;;;;;;5034458;28;19919;-63
2021/07/24 02:36:14;;;;;;;;;;;12.30;91.40;;;;;;5034967;28;19917;-62
2021/07/24 02:38:40;;;;;;;;;;;12.30;91.40;;;;;;5052261;28;19999;-63
2021/07/24 02:41:06;;;;;;;;;;;12.30;91.40;;;;;;5052194;28;19924;-61
2021/07/24 02:43:32;;;;;;;;;;;12.30;91.50;;;;;;5052706;28;19984;-62
2021/07/24 02:45:58;;;;;;;;;;;12.30;91.50;;;;;;5052266;28;20004;-62
2021/07/24 02:48:25;;;;;;;;;;;12.20;91.50;;;;;;5034278;28;20393;-61
2021/07/24 02:51:17;;;;;;;;;;;12.20;91.50;;;;;;5034247;28;20349;-62
2021/07/24 02:53:46;;;;;;;;;;;12.30;91.60;;;;;;5034625;28;19917;-62
2021/07/24 02:56:12;;;;;;;;;;;12.20;91.60;;;;;;5052077;28;19962;-62
2021/07/24 02:58:39;;;;;;;;;;;12.20;91.60;;;;;;5052114;28;19956;-63
2021/07/24 03:01:05;;;;;;;;;;;12.20;91.70;;;;;;5052214;28;19967;-62
2021/07/24 03:03:31;;;;;;;;;;;12.20;91.60;;;;;;5051925;28;19917;-63
2021/07/24 03:05:56;;;;;;;;;;;12.20;91.60;;;;;;5052219;28;20288;-63
2021/07/24 03:08:22;;;;;;;;;;;12.20;91.70;;;;;;5051909;28;19944;-62
2021/07/24 03:10:47;;;;;;;;;;;12.10;91.70;;;;;;5051765;28;20027;-62
2021/07/24 03:13:13;;;;;;;;;;;12.10;91.70;;;;;;5052272;28;20284;-61
2021/07/24 03:15:38;;;;;;;;;;;12.10;91.70;;;;;;5051606;28;19917;-63
2021/07/24 03:18:04;;;;;;;;;;;12.10;91.70;;;;;;5051600;28;20446;-61
2021/07/24 03:20:30;;;;;;;;;;;12.10;91.70;;;;;;5053211;28;19923;-62
2021/07/24 03:22:59;;;;;;;;;;;12.10;91.80;;;;;;5053610;28;19924;-65
2021/07/24 03:25:26;;;;;;;;;;;12.20;91.80;;;;;;5052043;28;19917;-63
2021/07/24 03:27:51;;;;;;;;;;;12.10;91.80;;;;;;5051559;28;19916;-63
2021/07/24 03:30:17;;;;;;;;;;;12.10;91.90;;;;;;5051357;28;19921;-63
2021/07/24 03:32:42;;;;;;;;;;;12.10;91.90;;;;;;5051649;28;20454;-61
2021/07/24 03:35:08;;;;;;;;;;;12.10;91.80;;;;;;5033563;28;19975;-61
2021/07/24 03:37:34;;;;;;;;;;;12.10;91.90;;;;;;5051503;28;19920;-62
2021/07/24 03:39:59;;;;;;;;;;;12.10;91.90;;;;;;5051442;28;19921;-61
2021/07/24 03:42:25;;;;;;;;;;;12.20;91.90;;;;;;5051077;28;19921;-61
2021/07/24 03:44:50;;;;;;;;;;;12.20;91.90;;;;;;5052044;28;20273;-61
2021/07/24 03:47:16;;;;;;;;;;;12.20;92.00;;;;;;5053978;28;19917;-63
2021/07/24 03:49:41;;;;;;;;;;;12.20;92.00;;;;;;5035481;28;19917;-67
2021/07/24 03:52:07;;;;;;;;;;;12.20;92.00;;;;;;5053073;28;19948;-65
2021/07/24 03:54:32;;;;;;;;;;;12.20;92.10;;;;;;5018644;28;19943;-63
2021/07/24 03:56:58;;;;;;;;;;;12.20;92.10;;;;;;5052189;28;19997;-61
2021/07/24 03:59:23;;;;;;;;;;;12.30;92.10;;;;;;5052013;28;20393;-62
2021/07/24 04:01:51;;;;;;;;;;;12.30;92.10;;;;;;5051451;28;20075;-64
2021/07/24 04:04:17;;;;;;;;;;;12.40;92.20;;;;;;5052211;28;19939;-63
2021/07/24 04:06:43;;;;;;;;;;;12.40;92.20;;;;;;5051399;28;20373;-62
2021/07/24 04:09:09;;;;;;;;;;;12.40;92.20;;;;;;5052948;28;19924;-62
2021/07/24 04:11:35;;;;;;;;;;;12.40;92.20;;;;;;5052025;28;19917;-63
2021/07/24 04:14:02;;;;;;;;;;;12.50;92.30;;;;;;5052162;28;20339;-62
2021/07/24 04:16:27;;;;;;;;;;;12.60;92.30;;;;;;5051860;28;19966;-63
2021/07/24 04:18:53;;;;;;;;;;;12.60;92.30;;;;;;5051128;28;19917;-62
2021/07/24 04:21:19;;;;;;;;;;;12.60;92.30;;;;;;5051694;28;19921;-64
2021/07/24 04:23:45;;;;;;;;;;;12.70;92.30;;;;;;5051928;28;19944;-61
2021/07/24 04:26:10;;;;;;;;;;;12.70;92.30;;;;;;5051207;28;20051;-61
2021/07/24 04:28:36;;;;;;;;;;;12.80;92.40;;;;;;5050394;28;20352;-63
2021/07/24 04:31:02;;;;;;;;;;;12.80;92.40;;;;;;5016875;28;19917;-61
2021/07/24 04:33:27;;;;;;;;;;;12.90;92.40;;;;;;5051170;28;19921;-63
2021/07/24 04:35:53;;;;;;;;;;;12.90;92.40;;;;;;5032776;28;19932;-61
2021/07/24 04:38:18;;;;;;;;;;;13.00;92.40;;;;;;5032848;28;19924;-61
2021/07/24 04:40:45;;;;;;;;;;;13.00;92.40;;;;;;5051129;28;19920;-63
2021/07/24 04:43:11;;;;;;;;;;;13.10;92.40;;;;;;5032785;28;20384;-63
2021/07/24 04:45:40;;;;;;;;;;;13.20;92.50;;;;;;5054531;28;19952;-61
2021/07/24 04:48:05;;;;;;;;;;;13.20;92.50;;;;;;5054338;28;20401;-61
2021/07/24 04:50:31;;;;;;;;;;;13.30;92.60;;;;;;5054732;28;19959;-62
2021/07/24 04:52:56;;;;;;;;;;;13.40;92.70;;;;;;5054840;28;20403;-62
2021/07/24 04:55:24;;;;;;;;;;;13.50;92.60;;;;;;5054191;28;19916;-62
2021/07/24 04:57:50;;;;;;;;;;;13.60;92.60;;;;;;5020130;28;19917;-63
2021/07/24 05:00:16;;;;;;;;;;;13.70;92.60;;;;;;5036390;28;19924;-63
2021/07/24 05:02:45;;;;;;;;;;;13.80;92.60;;;;;;5054770;28;19921;-62
2021/07/24 05:05:10;;;;;;;;;;;13.90;92.60;;;;;;5036766;28;19917;-63
2021/07/24 05:07:36;;;;;;;;;;;14.00;92.50;;;;;;5054247;28;19979;-63
2021/07/24 05:10:08;;;;;;;;;;;14.00;92.50;;;;;;5054374;28;20015;-62
2021/07/24 05:12:33;;;;;;;;;;;14.20;92.50;;;;;;5054157;28;19979;-64
2021/07/24 05:14:59;;;;;;;;;;;14.20;92.60;;;;;;5054366;28;20296;-63
2021/07/24 05:17:24;;;;;;;;;;;14.40;92.60;;;;;;5054106;28;19917;-63
2021/07/24 05:19:50;;;;;;;;;;;14.50;92.60;;;;;;5053704;28;19918;-63
2021/07/24 05:22:16;;;;;;;;;;;14.70;92.60;;;;;;5054261;28;19927;-61
2021/07/24 05:24:45;;;;;;;;;;;14.80;92.50;;;;;;5054103;28;19917;-63
2021/07/24 05:27:12;;;;;;;;;;;14.90;92.50;;;;;;5053647;28;19977;-62
2021/07/24 05:29:37;;;;;;;;;;;15.10;92.40;;;;;;5036311;28;19917;-63
2021/07/24 05:32:03;;;;;;;;;;;15.20;92.40;;;;;;5053724;28;20008;-61
2021/07/24 05:34:28;;;;;;;;;;;15.40;92.40;;;;;;5053992;28;19917;-62
2021/07/24 05:36:54;;;;;;;;;;;15.50;92.30;;;;;;5053734;28;19939;-63
2021/07/24 05:39:20;;;;;;;;;;;15.70;92.20;;;;;;5053106;28;19921;-61
2021/07/24 05:41:45;;;;;;;;;;;15.90;92.10;;;;;;5053811;28;19928;-62
2021/07/24 05:44:13;;;;;;;;;;;16.00;92.00;;;;;;5053824;28;20004;-63
2021/07/24 05:46:39;;;;;;;;;;;16.20;92.00;;;;;;5053100;28;19917;-61
2021/07/24 05:49:06;;;;;;;;;;;16.30;91.90;;;;;;5035969;28;19924;-61
2021/07/24 05:51:31;;;;;;;;;;;16.60;92.20;;;;;;5053525;28;19917;-64
2021/07/24 05:53:57;;;;;;;;;;;17.00;92.50;;;;;;5036817;28;19970;-62
2021/07/24 05:56:22;;;;;;;;;;;17.70;93.20;;;;;;5054033;28;19924;-61
2021/07/24 05:58:48;;;;;;;;;;;18.80;94.10;;;;;;5052665;28;19927;-62
2021/07/24 06:01:14;;;;;;;;;;;20.20;94.60;;;;;;5053289;28;19939;-63
2021/07/24 06:03:40;;;;;;;;;;;21.80;94.40;;;;;;5053400;28;20325;-62
2021/07/24 06:06:05;;;;;;;;;;;23.10;92.50;;;;;;5053064;28;19917;-61
2021/07/24 06:08:31;;;;;;;;;;;24.30;91.40;;;;;;5052901;28;19921;-62
2021/07/24 06:11:03;;;;;;;;;;;25.20;89.30;;;;;;5052847;28;19970;-61
2021/07/24 06:13:29;;;;;;;;;;;26.10;87.50;;;;;;5053067;28;19916;-63
2021/07/24 06:15:55;;;;;;;;;;;27.00;84.50;;;;;;5053184;28;19920;-62
2021/07/24 06:18:21;;;;;;;;;;;27.70;82.00;;;;;;5052250;28;20320;-61
2021/07/24 06:20:47;;;;;;;;;;;28.40;79.40;;;;;;5035300;28;19924;-61
2021/07/24 06:23:13;;;;;;;;;;;29.00;76.20;;;;;;5052520;28;19970;-62
2021/07/24 06:25:39;;;;;;;;;;;29.60;74.00;;;;;;5034800;28;20376;-64
2021/07/24 06:28:04;;;;;;;;;;;30.20;71.50;;;;;;5052823;28;19924;-62
2021/07/24 06:30:30;;;;;;;;;;;30.70;68.60;;;;;;5034358;28;19924;-63
2021/07/24 06:32:55;;;;;;;;;;;31.10;66.10;;;;;;5052826;28;19916;-62
2021/07/24 06:35:21;;;;;;;;;;;31.50;63.50;;;;;;5053033;28;19917;-62
2021/07/24 06:37:46;;;;;;;;;;;31.90;61.90;;;;;;5051923;28;19920;-62
2021/07/24 06:40:12;;;;;;;;;;;32.30;59.60;;;;;;5053066;28;20012;-63
2021/07/24 06:42:38;;;;;;;;;;;32.80;57.60;;;;;;5052559;28;19925;-62
2021/07/24 06:45:05;;;;;;;;;;;33.20;55.80;;;;;;5052034;28;19921;-62
2021/07/24 06:47:30;;;;;;;;;;;33.40;54.00;;;;;;5034387;28;19917;-62
2021/07/24 06:49:56;;;;;;;;;;;33.80;52.40;;;;;;5052009;28;19966;-62
2021/07/24 06:52:21;;;;;;;;;;;34.20;51.40;;;;;;5052248;28;19921;-62
2021/07/24 06:54:48;;;;;;;;;;;34.70;49.60;;;;;;5052301;28;19916;-62
2021/07/24 06:57:14;;;;;;;;;;;35.00;48.00;;;;;;5051588;28;20381;-62
2021/07/24 06:59:39;;;;;;;;;;;35.40;46.70;;;;;;5052344;28;19924;-62
2021/07/24 07:02:05;;;;;;;;;;;35.70;45.00;;;;;;5051700;28;19925;-63
2021/07/24 07:04:31;;;;;;;;;;;36.00;44.40;;;;;;5052228;28;19917;-63
2021/07/24 07:06:57;;;;;;;;;;;36.40;43.50;;;;;;5051406;28;20529;-62
2021/07/24 07:09:22;;;;;;;;;;;36.70;41.20;;;;;;5051680;28;19956;-63
2021/07/24 07:11:48;;;;;;;;;;;36.80;41.20;;;;;;5034313;28;19920;-62
2021/07/24 07:14:13;;;;;;;;;;;37.00;40.00;;;;;;5052260;28;19917;-62
2021/07/24 07:16:39;;;;;;;;;;;37.20;39.30;;;;;;5017067;28;19924;-63
2021/07/24 07:19:06;;;;;;;;;;;37.20;37.40;;;;;;5051383;28;20316;-61
2021/07/24 07:21:32;;;;;;;;;;;37.20;37.70;;;;;;5051352;28;19924;-63
2021/07/24 07:23:58;;;;;;;;;;;37.50;37.10;;;;;;5051960;28;19925;-63
2021/07/24 07:26:24;;;;;;;;;;;37.90;36.40;;;;;;5052187;28;20016;-62
2021/07/24 07:28:51;;;;;;;;;;;38.00;35.80;;;;;;5033573;28;19924;-63
2021/07/24 07:31:16;;;;;;;;;;;38.30;35.70;;;;;;5033981;28;20365;-62
2021/07/24 07:33:42;;;;;;;;;;;39.00;35.80;;;;;;5051770;28;20003;-62
2021/07/24 07:36:08;;;;;;;;;;;39.80;35.80;;;;;;5051295;28;20332;-62
2021/07/24 07:38:33;;;;;;;;;;;40.50;35.00;;;;;;5033438;28;20373;-62
2021/07/24 07:40:59;;;;;;;;;;;41.00;34.20;;;;;;5051107;28;19927;-63
2021/07/24 07:43:24;;;;;;;;;;;41.40;33.30;;;;;;5051613;28;19917;-62
2021/07/24 07:45:50;;;;;;;;;;;41.70;32.40;;;;;;5051157;28;19962;-62
2021/07/24 07:48:15;;;;;;;;;;;42.00;31.90;;;;;;5050694;28;19935;-61
2021/07/24 07:50:41;;;;;;;;;;;42.50;31.40;;;;;;5016941;28;20681;-62
2021/07/24 07:53:07;;;;;;;;;;;42.70;30.30;;;;;;5033764;28;19917;-62
2021/07/24 07:55:32;;;;;;;;;;;42.70;30.00;;;;;;5050879;28;19917;-62
2021/07/24 07:57:58;;;;;;;;;;;43.00;29.80;;;;;;5051017;28;19921;-61
2021/07/24 08:00:24;;;;;;;;;;;43.10;29.30;;;;;;5050791;28;19917;-63
2021/07/24 08:02:50;;;;;;;;;;;43.20;29.00;;;;;;5033392;28;20389;-63
2021/07/24 08:05:16;;;;;;;;;;;43.10;28.50;;;;;;5051220;28;19917;-62
2021/07/24 08:07:41;;;;;;;;;;;43.30;28.60;;;;;;5050551;28;19923;-62
2021/07/24 08:10:07;;;;;;;;;;;43.50;28.70;;;;;;5051285;28;19945;-63
2021/07/24 08:12:33;;;;;;;;;;;43.70;28.50;;;;;;5051331;28;20380;-62
2021/07/24 08:14:58;;;;;;;;;;;44.20;28.60;;;;;;5050783;28;19927;-62
2021/07/24 08:17:24;;;;;;;;;;;44.70;28.30;;;;;;5050520;28;19967;-62
2021/07/24 08:19:50;;;;;;;;;;;45.10;27.80;;;;;;5052922;28;19917;-64
2021/07/24 08:22:15;;;;;;;;;;;45.40;27.70;;;;;;5054631;28;20343;-62
2021/07/24 08:24:41;;;;;;;;;;;45.60;27.30;;;;;;5055041;28;19913;-62
2021/07/24 08:27:06;;;;;;;;;;;45.90;27.30;;;;;;5054550;28;20278;-62
2021/07/24 08:29:32;;;;;;;;;;;46.10;26.90;;;;;;5055073;28;19966;-62
2021/07/24 08:31:58;;;;;;;;;;;46.40;26.60;;;;;;5037182;28;19936;-63
2021/07/24 08:34:24;;;;;;;;;;;46.80;26.50;;;;;;5054566;28;19917;-64
2021/07/24 08:36:50;;;;;;;;;;;47.00;25.80;;;;;;5054867;28;19974;-63
2021/07/24 08:39:15;;;;;;;;;;;47.00;25.80;;;;;;5054768;28;19932;-64
2021/07/24 08:41:41;;;;;;;;;;;47.10;25.60;;;;;;5054345;28;20388;-63
2021/07/24 08:44:09;;;;;;;;;;;47.40;25.70;;;;;;5054831;28;20003;-63
2021/07/24 08:46:35;;;;;;;;;;;47.90;25.60;;;;;;5054613;28;19917;-65
2021/07/24 08:49:00;;;;;;;;;;;47.90;24.70;;;;;;5054453;28;19916;-62
2021/07/24 08:51:26;;;;;;;;;;;47.70;24.90;;;;;;5054638;28;20306;-63
2021/07/24 08:53:52;;;;;;;;;;;47.80;24.70;;;;;;5054357;28;20377;-63
2021/07/24 08:56:24;;;;;;;;;;;48.00;24.90;;;;;;5054733;28;19916;-63
2021/07/24 08:58:54;;;;;;;;;;;48.30;24.80;;;;;;5053956;28;20418;-62
2021/07/24 09:01:21;;;;;;;;;;;48.30;24.40;;;;;;5054449;28;20031;-62
2021/07/24 09:03:47;;;;;;;;;;;48.70;24.40;;;;;;5054733;28;19917;-64
2021/07/24 09:06:20;;;;;;;;;;;49.20;24.30;;;;;;5054226;28;19916;-62
2021/07/24 09:08:47;;;;;;;;;;;49.50;24.20;;;;;;5054262;28;19924;-63
2021/07/24 09:11:13;;;;;;;;;;;49.80;23.90;;;;;;5054105;28;19917;-63
2021/07/24 09:13:38;;;;;;;;;;;49.90;23.90;;;;;;5054369;28;19971;-64
2021/07/24 09:16:06;;;;;;;;;;;50.00;23.60;;;;;;5054240;28;19916;-63
2021/07/24 09:18:32;;;;;;;;;;;50.00;23.40;;;;;;5053483;28;20398;-63
2021/07/24 09:20:58;;;;;;;;;;;49.20;23.10;;;;;;5054251;28;19917;-62
2021/07/24 09:23:27;;;;;;;;;;;49.10;23.70;;;;;;5053750;28;20008;-64
2021/07/24 09:25:53;;;;;;;;;;;49.70;23.60;;;;;;5054240;28;19924;-63
2021/07/24 09:28:19;;;;;;;;;;;50.10;23.30;;;;;;5053520;28;19917;-63
2021/07/24 09:30:44;;;;;;;;;;;50.40;23.40;;;;;;5035579;28;19966;-62
2021/07/24 09:33:11;;;;;;;;;;;50.80;23.30;;;;;;5054016;28;20281;-63
2021/07/24 09:35:40;;;;;;;;;;;50.90;22.60;;;;;;5035653;28;19916;-65
2021/07/24 09:38:12;;;;;;;;;;;50.30;22.50;;;;;;5053708;28;19939;-64
2021/07/24 09:40:38;;;;;;;;;;;49.70;22.20;;;;;;5053867;28;19974;-62
2021/07/24 09:43:04;;;;;;;;;;;49.50;22.80;;;;;;5053502;28;19917;-64
2021/07/24 09:45:30;;;;;;;;;;;50.00;22.80;;;;;;5053857;28;19923;-63
2021/07/24 09:48:12;;;;;;;;;;;50.30;22.70;;;;;;5035682;28;19920;-63
2021/07/24 09:50:38;;;;;;;;;;;50.50;22.50;;;;;;5053354;28;20004;-63
2021/07/24 09:53:03;;;;;;;;;;;50.80;22.70;;;;;;5053664;28;20003;-63
2021/07/24 09:55:29;;;;;;;;;;;51.00;22.30;;;;;;5053106;28;20298;-63
2021/07/24 09:57:58;;;;;;;;;;;50.90;22.50;;;;;;5053320;28;20361;-63
2021/07/24 10:00:23;;;;;;;;;;;51.40;22.30;;;;;;5053556;28;19924;-64
2021/07/24 10:02:56;;;;;;;;;;;51.20;22.00;;;;;;5053018;28;19921;-63
2021/07/24 10:05:23;;;;;;;;;;;50.70;22.00;;;;;;5053486;28;19949;-63
2021/07/24 10:07:48;;;;;;;;;;;50.80;22.30;;;;;;5034816;28;20316;-65
2021/07/24 10:10:16;;;;;;;;;;;51.20;22.40;;;;;;5053374;28;20001;-63
2021/07/24 10:12:42;;;;;;;;;;;51.30;21.90;;;;;;5053168;28;19963;-63
2021/07/24 10:15:11;;;;;;;;;;;51.00;21.60;;;;;;5052953;28;19921;-62
2021/07/24 10:17:36;;;;;;;;;;;50.90;21.80;;;;;;5053014;28;19988;-63
2021/07/24 10:20:02;;;;;;;;;;;51.00;21.90;;;;;;5052054;28;19917;-63
2021/07/24 10:22:28;;;;;;;;;;;50.70;21.70;;;;;;5053037;28;19921;-64
2021/07/24 10:24:53;;;;;;;;;;;50.90;22.20;;;;;;5053032;28;19921;-63
2021/07/24 10:27:23;;;;;;;;;;;51.70;22.30;;;;;;5052093;28;19917;-63
2021/07/24 10:29:57;;;;;;;;;;;52.60;21.90;;;;;;5052891;28;19956;-63
2021/07/24 10:32:28;;;;;;;;;;;52.60;21.50;;;;;;5052298;28;20349;-63
2021/07/24 10:34:54;;;;;;;;;;;52.80;21.70;;;;;;5052911;28;19924;-62
2021/07/24 10:37:38;;;;;;;;;;;53.30;21.70;;;;;;5034133;28;20308;-63
2021/07/24 10:40:27;;;;;;;;;;;53.80;21.60;;;;;;5052445;28;20444;-63
2021/07/24 10:42:53;;;;;;;;;;;53.90;21.00;;;;;;5051251;28;19921;-63
2021/07/24 10:45:45;;;;;;;;;;;53.40;21.30;;;;;;5034681;28;19947;-63
2021/07/24 10:48:13;;;;;;;;;;;53.50;21.80;;;;;;5040830;28;19917;-63
2021/07/24 10:50:57;;;;;;;;;;;53.80;21.40;;;;;;5034634;28;19975;-63
2021/07/24 10:53:27;;;;;;;;;;;53.80;21.80;;;;;;5052110;28;19916;-63
2021/07/24 10:55:54;;;;;;;;;;;53.90;21.30;;;;;;5052393;28;19917;-63
2021/07/24 10:58:27;;;;;;;;;;;53.50;20.90;;;;;;5051547;28;19912;-63
2021/07/24 11:00:54;;;;;;;;;;;53.10;21.20;;;;;;5052251;28;19924;-63
2021/07/24 11:03:34;;;;;;;;;;;52.90;20.80;;;;;;5051864;28;20293;-63
2021/07/24 11:06:00;;;;;;;;;;;52.70;20.90;;;;;;5052251;28;19939;-64
2021/07/24 11:08:44;;;;;;;;;;;53.10;21.10;;;;;;5051297;28;19916;-63
2021/07/24 11:11:10;;;;;;;;;;;53.40;20.90;;;;;;5052219;28;19917;-64
2021/07/24 11:13:45;;;;;;;;;;;53.50;20.90;;;;;;5051935;28;19919;-63
2021/07/24 11:16:11;;;;;;;;;;;53.40;20.80;;;;;;5052252;28;19947;-64
2021/07/24 11:18:36;;;;;;;;;;;53.50;21.10;;;;;;5051329;28;19912;-63
2021/07/24 11:21:02;;;;;;;;;;;53.60;21.00;;;;;;5052370;28;19967;-65
2021/07/24 11:23:27;;;;;;;;;;;53.70;20.80;;;;;;5034138;28;19921;-63
2021/07/24 11:26:00;;;;;;;;;;;53.80;21.00;;;;;;5051637;28;19920;-64
2021/07/24 11:28:25;;;;;;;;;;;53.70;20.80;;;;;;5051647;28;20289;-63
2021/07/24 11:30:57;;;;;;;;;;;53.60;20.90;;;;;;5051830;28;19917;-63
2021/07/24 11:33:26;;;;;;;;;;;53.50;21.00;;;;;;5051335;28;19917;-63
2021/07/24 11:35:57;;;;;;;;;;;53.10;20.50;;;;;;5051868;28;19946;-63
2021/07/24 11:38:24;;;;;;;;;;;51.80;20.70;;;;;;5050728;28;19916;-63
2021/07/24 11:41:00;;;;;;;;;;;49.80;20.70;;;;;;5051582;28;19916;-61
2021/07/24 11:43:25;;;;;;;;;;;47.80;21.30;;;;;;5051357;28;19917;-61
2021/07/24 11:45:58;;;;;;;;;;;46.50;21.60;;;;;;5051421;28;19939;-62
2021/07/24 11:48:23;;;;;;;;;;;45.30;21.90;;;;;;5050956;28;19917;-61
2021/07/24 11:50:58;;;;;;;;;;;43.80;22.30;;;;;;5051580;28;20210;-62
2021/07/24 11:53:24;;;;;;;;;;;42.20;22.90;;;;;;5051498;28;19968;-62
2021/07/24 11:55:49;;;;;;;;;;;40.70;23.60;;;;;;5051150;28;19979;-61
2021/07/24 11:58:17;;;;;;;;;;;39.70;24.60;;;;;;5051067;28;19923;-62
2021/07/24 12:00:50;;;;;;;;;;;39.20;24.90;;;;;;5051294;28;20273;-62
2021/07/24 12:03:17;;;;;;;;;;;39.00;25.20;;;;;;5051199;28;20457;-62
2021/07/24 12:05:43;;;;;;;;;;;38.90;25.00;;;;;;5051467;28;19923;-63
2021/07/24 12:08:09;;;;;;;;;;;38.40;25.20;;;;;;5050621;28;19921;-61
2021/07/24 12:10:35;;;;;;;;;;;37.40;25.60;;;;;;5051400;28;19921;-63
2021/07/24 12:13:01;;;;;;;;;;;36.40;26.20;;;;;;5051374;28;19917;-63
2021/07/24 12:15:47;;;;;;;;;;;35.80;26.90;;;;;;5051052;28;19916;-62
2021/07/24 12:18:16;;;;;;;;;;;35.50;27.40;;;;;;5049871;28;19986;-61
2021/07/24 12:20:42;;;;;;;;;;;35.90;27.90;;;;;;5051258;28;20004;-61
2021/07/24 12:23:16;;;;;;;;;;;36.80;28.10;;;;;;5051189;28;19996;-62
2021/07/24 12:25:42;;;;;;;;;;;37.80;27.90;;;;;;5050705;28;19921;-62
2021/07/24 12:28:07;;;;;;;;;;;38.30;27.40;;;;;;5050892;28;19921;-61
2021/07/24 12:30:33;;;;;;;;;;;38.70;27.00;;;;;;5050775;28;19939;-61
2021/07/24 12:32:59;;;;;;;;;;;39.30;26.90;;;;;;5051239;28;20387;-63
2021/07/24 12:35:25;;;;;;;;;;;39.30;26.50;;;;;;5051200;28;20002;-62
2021/07/24 12:38:01;;;;;;;;;;;38.50;26.50;;;;;;5050387;28;20369;-62
2021/07/24 12:40:28;;;;;;;;;;;37.20;26.70;;;;;;5051545;28;19928;-62
2021/07/24 12:42:53;;;;;;;;;;;35.90;27.40;;;;;;5050643;28;20447;-62
2021/07/24 12:45:23;;;;;;;;;;;35.30;28.10;;;;;;5051159;28;19949;-61
2021/07/24 12:47:49;;;;;;;;;;;34.80;28.40;;;;;;5050388;28;19921;-63
2021/07/24 12:50:15;;;;;;;;;;;34.30;28.70;;;;;;5050983;28;20388;-61
2021/07/24 12:52:45;;;;;;;;;;;33.90;29.20;;;;;;5050792;28;19921;-61
2021/07/24 12:55:14;;;;;;;;;;;33.60;29.40;;;;;;5032645;28;19921;-62
2021/07/24 12:57:40;;;;;;;;;;;33.20;29.90;;;;;;5050675;28;19916;-62
2021/07/24 13:00:12;;;;;;;;;;;33.00;30.50;;;;;;5050388;28;20381;-63
2021/07/24 13:02:40;;;;;;;;;;;32.70;30.60;;;;;;5050812;28;19921;-60
2021/07/24 13:05:07;;;;;;;;;;;32.40;31.00;;;;;;5051915;28;19917;-62
2021/07/24 13:07:38;;;;;;;;;;;32.30;31.70;;;;;;5036052;28;19921;-62
2021/07/24 13:10:05;;;;;;;;;;;32.40;32.20;;;;;;5054404;28;19917;-62
2021/07/24 13:12:31;;;;;;;;;;;32.70;32.40;;;;;;5053857;28;19917;-64
2021/07/24 13:14:56;;;;;;;;;;;32.90;32.40;;;;;;5054456;28;19928;-62
2021/07/24 13:17:24;;;;;;;;;;;32.60;32.40;;;;;;5054199;28;20381;-60
2021/07/24 13:19:50;;;;;;;;;;;32.20;32.60;;;;;;5053415;28;20373;-62
2021/07/24 13:22:15;;;;;;;;;;;32.00;33.10;;;;;;5054143;28;19928;-62
2021/07/24 13:24:42;;;;;;;;;;;31.80;33.50;;;;;;5053992;28;19923;-62
2021/07/24 13:29:52;;;;;;;;;;;31.60;34.40;;;;;;5053671;28;20327;-62
2021/07/24 13:32:18;;;;;;;;;;;31.50;34.80;;;;;;5036138;28;19917;-62
2021/07/24 13:34:44;;;;;;;;;;;31.40;35.10;;;;;;5054159;28;19923;-61
2021/07/24 13:37:12;;;;;;;;;;;31.30;35.30;;;;;;5053450;28;19925;-62
2021/07/24 13:39:37;;;;;;;;;;;31.10;35.40;;;;;;5035751;28;19921;-63
2021/07/24 13:42:03;;;;;;;;;;;30.80;35.60;;;;;;5053478;28;20361;-62
2021/07/24 13:44:28;;;;;;;;;;;30.50;36.00;;;;;;5035989;28;19983;-62
2021/07/24 13:46:54;;;;;;;;;;;30.30;36.50;;;;;;5035584;28;19948;-60
2021/07/24 13:49:20;;;;;;;;;;;30.10;36.60;;;;;;5053255;28;19917;-62
2021/07/24 13:51:45;;;;;;;;;;;30.10;36.70;;;;;;5053742;28;20285;-63
2021/07/24 13:54:11;;;;;;;;;;;30.10;36.90;;;;;;5053597;28;20411;-62
2021/07/24 13:56:37;;;;;;;;;;;30.10;37.10;;;;;;5035002;28;19924;-63
2021/07/24 13:59:03;;;;;;;;;;;30.20;37.00;;;;;;5053415;28;19960;-62
2021/07/24 14:01:29;;;;;;;;;;;30.10;37.10;;;;;;5053408;28;20405;-63
2021/07/24 14:03:54;;;;;;;;;;;30.10;37.40;;;;;;5053197;28;19924;-60
2021/07/24 14:06:20;;;;;;;;;;;30.20;37.40;;;;;;5053461;28;19955;-60
2021/07/24 14:08:46;;;;;;;;;;;30.30;37.30;;;;;;5052489;28;20417;-63
2021/07/24 14:11:13;;;;;;;;;;;30.30;37.10;;;;;;5053508;28;19916;-62
2021/07/24 14:13:39;;;;;;;;;;;30.20;37.30;;;;;;5053331;28;20304;-62
2021/07/24 14:16:30;;;;;;;;;;;30.20;37.60;;;;;;5017641;28;19916;-62
2021/07/24 14:18:56;;;;;;;;;;;30.30;37.70;;;;;;5047847;28;19960;-61
2021/07/24 14:21:22;;;;;;;;;;;30.20;37.40;;;;;;5052679;28;20026;-62
2021/07/24 14:23:49;;;;;;;;;;;30.30;37.50;;;;;;5053033;28;19916;-61